createdAt,value
2022-11-21T00:00:08.654Z,404.00
2022-11-21T00:00:38.678Z,402.00
2022-11-21T00:01:08.722Z,402.00
2022-11-21T00:01:38.805Z,402.00
2022-11-21T00:02:08.855Z,401.00
2022-11-21T00:02:38.936Z,400.00
2022-11-21T00:03:08.970Z,401.00
2022-11-21T00:03:39.005Z,402.00
2022-11-21T00:04:09.035Z,401.00
2022-11-21T00:04:39.063Z,402.00
2022-11-21T00:05:09.122Z,401.00
2022-11-21T00:05:39.144Z,400.00
2022-11-21T00:06:09.199Z,399.00
2022-11-21T00:06:39.236Z,398.00
2022-11-21T00:07:09.370Z,396.00
2022-11-21T00:07:39.342Z,396.00
2022-11-21T00:08:09.362Z,397.00
2022-11-21T00:08:39.391Z,396.00
2022-11-21T00:09:09.425Z,397.00
2022-11-21T00:09:39.502Z,398.00
2022-11-21T00:10:09.534Z,399.00
2022-11-21T00:10:39.570Z,398.00
2022-11-21T00:11:09.658Z,399.00
2022-11-21T00:11:39.668Z,400.00
2022-11-21T00:12:09.706Z,398.00
2022-11-21T00:12:39.806Z,397.00
2022-11-21T00:13:09.857Z,398.00
2022-11-21T00:13:39.915Z,400.00
2022-11-21T00:14:09.946Z,401.00
2022-11-21T00:14:40.001Z,402.00
2022-11-21T00:15:10.023Z,401.00
2022-11-21T00:15:40.068Z,403.00
2022-11-21T00:16:10.109Z,402.00
2022-11-21T00:16:40.153Z,400.00
2022-11-21T00:17:10.178Z,402.00
2022-11-21T00:17:40.221Z,404.00
2022-11-21T00:18:10.269Z,404.00
2022-11-21T00:18:40.307Z,402.00
2022-11-21T00:19:10.337Z,402.00
2022-11-21T00:19:40.385Z,401.00
2022-11-21T00:20:10.425Z,400.00
2022-11-21T00:20:40.464Z,398.00
2022-11-21T00:21:10.511Z,397.00
2022-11-21T00:21:40.554Z,397.00
2022-11-21T00:22:10.569Z,398.00
2022-11-21T00:22:40.673Z,397.00
2022-11-21T00:23:10.719Z,395.00
2022-11-21T00:23:40.769Z,398.00
2022-11-21T00:24:10.792Z,400.00
2022-11-21T00:24:40.834Z,401.00
2022-11-21T00:25:10.871Z,402.00
2022-11-21T00:25:40.904Z,401.00
2022-11-21T00:26:10.938Z,401.00
2022-11-21T00:26:40.963Z,401.00
2022-11-21T00:27:11.001Z,402.00
2022-11-21T00:27:41.019Z,401.00
2022-11-21T00:28:11.051Z,400.00
2022-11-21T00:28:41.089Z,401.00
2022-11-21T00:29:11.140Z,403.00
2022-11-21T00:29:41.149Z,403.00
2022-11-21T00:30:11.181Z,401.00
2022-11-21T00:30:41.220Z,402.00
2022-11-21T00:31:11.245Z,400.00
2022-11-21T00:31:41.276Z,400.00
2022-11-21T00:32:11.333Z,399.00
2022-11-21T00:32:41.376Z,400.00
2022-11-21T00:33:11.417Z,401.00
2022-11-21T00:33:41.456Z,401.00
2022-11-21T00:34:11.495Z,400.00
2022-11-21T00:34:41.532Z,397.00
2022-11-21T00:35:11.543Z,398.00
2022-11-21T00:35:41.551Z,400.00
2022-11-21T00:36:11.654Z,400.00
2022-11-21T00:36:41.772Z,401.00
2022-11-21T00:37:11.791Z,403.00
2022-11-21T00:37:41.794Z,404.00
2022-11-21T00:38:11.792Z,403.00
2022-11-21T00:38:41.800Z,406.00
2022-11-21T00:39:11.802Z,406.00
2022-11-21T00:39:41.929Z,407.00
2022-11-21T00:40:11.931Z,407.00
2022-11-21T00:40:42.061Z,405.00
2022-11-21T00:41:12.070Z,404.00
2022-11-21T00:41:42.102Z,404.00
2022-11-21T00:42:12.109Z,403.00
2022-11-21T00:42:42.107Z,403.00
2022-11-21T00:43:12.225Z,405.00
2022-11-21T00:43:42.216Z,406.00
2022-11-21T00:44:12.328Z,405.00
2022-11-21T00:44:42.440Z,407.00
2022-11-21T00:45:12.476Z,408.00
2022-11-21T00:45:42.521Z,408.00
2022-11-21T00:46:12.547Z,408.00
2022-11-21T00:46:42.590Z,408.00
2022-11-21T00:47:12.616Z,407.00
2022-11-21T00:47:42.660Z,407.00
2022-11-21T00:48:12.691Z,407.00
2022-11-21T00:48:42.728Z,407.00
2022-11-21T00:49:12.760Z,409.00
2022-11-21T00:49:42.802Z,409.00
2022-11-21T00:50:12.851Z,409.00
2022-11-21T00:50:42.879Z,410.00
2022-11-21T00:51:12.920Z,408.00
2022-11-21T00:51:42.970Z,407.00
2022-11-21T00:52:12.994Z,408.00
2022-11-21T00:52:43.034Z,409.00
2022-11-21T00:53:13.087Z,410.00
2022-11-21T00:53:43.121Z,409.00
2022-11-21T00:54:13.165Z,410.00
2022-11-21T00:54:43.192Z,410.00
2022-11-21T00:55:13.256Z,410.00
2022-11-21T00:55:43.255Z,411.00
2022-11-21T00:56:13.326Z,410.00
2022-11-21T00:56:43.333Z,409.00
2022-11-21T00:57:13.374Z,409.00
2022-11-21T00:57:43.445Z,408.00
2022-11-21T00:58:13.455Z,406.00
2022-11-21T00:58:43.502Z,404.00
2022-11-21T00:59:13.552Z,403.00
2022-11-21T00:59:43.565Z,402.00
2022-11-21T01:00:13.595Z,403.00
2022-11-21T01:00:43.672Z,404.00
2022-11-21T01:01:13.809Z,403.00
2022-11-21T01:01:43.888Z,402.00
2022-11-21T01:02:13.816Z,404.00
2022-11-21T01:02:43.845Z,404.00
2022-11-21T01:03:13.890Z,406.00
2022-11-21T01:03:43.922Z,406.00
2022-11-21T01:04:13.956Z,406.00
2022-11-21T01:04:43.999Z,404.00
2022-11-21T01:05:14.035Z,404.00
2022-11-21T01:05:44.056Z,404.00
2022-11-21T01:06:14.091Z,405.00
2022-11-21T01:06:44.145Z,403.00
2022-11-21T01:07:14.238Z,404.00
2022-11-21T01:07:44.324Z,403.00
2022-11-21T01:08:14.374Z,402.00
2022-11-21T01:08:44.413Z,401.00
2022-11-21T01:09:14.449Z,399.00
2022-11-21T01:09:44.486Z,399.00
2022-11-21T01:10:14.528Z,397.00
2022-11-21T01:10:44.587Z,399.00
2022-11-21T01:11:14.603Z,397.00
2022-11-21T01:11:44.650Z,395.00
2022-11-21T01:12:14.711Z,397.00
2022-11-21T01:12:44.781Z,399.00
2022-11-21T01:13:14.790Z,399.00
2022-11-21T01:13:44.830Z,400.00
2022-11-21T01:14:14.859Z,401.00
2022-11-21T01:14:44.900Z,401.00
2022-11-21T01:15:14.935Z,401.00
2022-11-21T01:15:44.974Z,403.00
2022-11-21T01:16:14.996Z,402.00
2022-11-21T01:16:45.041Z,404.00
2022-11-21T01:17:15.082Z,405.00
2022-11-21T01:17:45.140Z,403.00
2022-11-21T01:18:15.172Z,402.00
2022-11-21T01:18:45.198Z,401.00
2022-11-21T01:19:15.240Z,399.00
2022-11-21T01:19:45.284Z,401.00
2022-11-21T01:20:15.344Z,401.00
2022-11-21T01:20:45.369Z,401.00
2022-11-21T01:21:15.410Z,402.00
2022-11-21T01:21:45.443Z,399.00
2022-11-21T01:22:15.498Z,398.00
2022-11-21T01:22:45.534Z,395.00
2022-11-21T01:23:15.656Z,394.00
2022-11-21T01:23:45.674Z,394.00
2022-11-21T01:24:15.733Z,394.00
2022-11-21T01:24:45.773Z,396.00
2022-11-21T01:25:15.817Z,396.00
2022-11-21T01:25:45.847Z,396.00
2022-11-21T01:26:15.872Z,398.00
2022-11-21T01:26:45.922Z,398.00
2022-11-21T01:27:15.947Z,397.00
2022-11-21T01:27:45.970Z,397.00
2022-11-21T01:28:16.020Z,396.00
2022-11-21T01:28:46.054Z,396.00
2022-11-21T01:29:16.100Z,396.00
2022-11-21T01:29:46.111Z,396.00
2022-11-21T01:30:16.174Z,396.00
2022-11-21T01:30:46.239Z,395.00
2022-11-21T01:31:16.251Z,398.00
2022-11-21T01:31:46.291Z,399.00
2022-11-21T01:32:16.334Z,400.00
2022-11-21T01:32:46.380Z,400.00
2022-11-21T01:33:16.427Z,399.00
2022-11-21T01:33:46.456Z,399.00
2022-11-21T01:34:16.486Z,401.00
2022-11-21T01:34:46.540Z,402.00
2022-11-21T01:35:16.550Z,400.00
2022-11-21T01:35:46.527Z,399.00
2022-11-21T01:36:16.546Z,399.00
2022-11-21T01:36:46.536Z,401.00
2022-11-21T01:37:16.547Z,400.00
2022-11-21T01:37:46.537Z,398.00
2022-11-21T01:38:16.655Z,398.00
2022-11-21T01:38:46.650Z,398.00
2022-11-21T01:39:16.673Z,398.00
2022-11-21T01:39:46.651Z,397.00
2022-11-21T01:40:16.656Z,400.00
2022-11-21T01:40:46.663Z,400.00
2022-11-21T01:41:16.662Z,399.00
2022-11-21T01:41:46.700Z,400.00
2022-11-21T01:42:16.693Z,397.00
2022-11-21T01:42:46.691Z,396.00
2022-11-21T01:43:16.699Z,394.00
2022-11-21T01:43:46.740Z,392.00
2022-11-21T01:44:16.707Z,392.00
2022-11-21T01:44:46.717Z,392.00
2022-11-21T01:45:16.742Z,394.00
2022-11-21T01:45:46.779Z,393.00
2022-11-21T01:46:16.806Z,394.00
2022-11-21T01:46:46.853Z,393.00
2022-11-21T01:47:16.922Z,394.00
2022-11-21T01:47:46.968Z,395.00
2022-11-21T01:48:17.007Z,395.00
2022-11-21T01:48:47.040Z,395.00
2022-11-21T01:49:17.084Z,398.00
2022-11-21T01:49:47.115Z,400.00
2022-11-21T01:50:17.165Z,402.00
2022-11-21T01:50:47.190Z,407.00
2022-11-21T01:51:17.240Z,405.00
2022-11-21T01:51:47.279Z,405.00
2022-11-21T01:52:17.308Z,404.00
2022-11-21T01:52:47.369Z,403.00
2022-11-21T01:53:17.412Z,402.00
2022-11-21T01:53:47.447Z,402.00
2022-11-21T01:54:17.503Z,400.00
2022-11-21T01:54:47.545Z,399.00
2022-11-21T01:55:17.569Z,400.00
2022-11-21T01:55:47.610Z,403.00
2022-11-21T01:56:17.648Z,402.00
2022-11-21T01:56:47.703Z,403.00
2022-11-21T01:57:17.717Z,402.00
2022-11-21T01:57:47.782Z,404.00
2022-11-21T01:58:17.820Z,403.00
2022-11-21T01:58:47.853Z,404.00
2022-11-21T01:59:17.920Z,403.00
2022-11-21T01:59:47.938Z,402.00
2022-11-21T02:00:17.953Z,404.00
2022-11-21T02:00:48.033Z,406.00
2022-11-21T02:01:18.073Z,408.00
2022-11-21T02:01:48.062Z,409.00
2022-11-21T02:02:18.100Z,408.00
2022-11-21T02:02:48.190Z,408.00
2022-11-21T02:03:18.235Z,406.00
2022-11-21T02:03:48.278Z,408.00
2022-11-21T02:04:18.305Z,406.00
2022-11-21T02:04:48.335Z,404.00
2022-11-21T02:05:18.388Z,403.00
2022-11-21T02:05:48.432Z,404.00
2022-11-21T02:06:18.492Z,402.00
2022-11-21T02:06:48.535Z,400.00
2022-11-21T02:07:18.651Z,400.00
2022-11-21T02:07:48.698Z,400.00
2022-11-21T02:08:18.783Z,401.00
2022-11-21T02:08:48.823Z,401.00
2022-11-21T02:09:18.839Z,400.00
2022-11-21T02:09:48.865Z,400.00
2022-11-21T02:10:18.901Z,400.00
2022-11-21T02:10:48.936Z,401.00
2022-11-21T02:11:18.980Z,402.00
2022-11-21T02:11:49.005Z,403.00
2022-11-21T02:12:19.096Z,403.00
2022-11-21T02:12:49.117Z,403.00
2022-11-21T02:13:19.140Z,403.00
2022-11-21T02:13:49.173Z,402.00
2022-11-21T02:14:19.210Z,402.00
2022-11-21T02:14:49.285Z,402.00
2022-11-21T02:15:19.311Z,403.00
2022-11-21T02:15:49.380Z,404.00
2022-11-21T02:16:19.419Z,405.00
2022-11-21T02:16:49.467Z,403.00
2022-11-21T02:17:19.518Z,403.00
2022-11-21T02:17:49.547Z,401.00
2022-11-21T02:18:19.591Z,401.00
2022-11-21T02:18:49.624Z,402.00
2022-11-21T02:19:19.674Z,404.00
2022-11-21T02:19:49.701Z,405.00
2022-11-21T02:20:19.743Z,407.00
2022-11-21T02:20:49.807Z,408.00
2022-11-21T02:21:19.822Z,407.00
2022-11-21T02:21:49.861Z,404.00
2022-11-21T02:22:19.910Z,402.00
2022-11-21T02:22:49.933Z,402.00
2022-11-21T02:23:19.985Z,400.00
2022-11-21T02:23:50.026Z,402.00
2022-11-21T02:24:20.062Z,401.00
2022-11-21T02:24:50.104Z,401.00
2022-11-21T02:25:20.151Z,402.00
2022-11-21T02:25:50.170Z,403.00
2022-11-21T02:26:20.206Z,404.00
2022-11-21T02:26:50.251Z,404.00
2022-11-21T02:27:20.276Z,405.00
2022-11-21T02:27:50.312Z,403.00
2022-11-21T02:28:20.364Z,402.00
2022-11-21T02:28:50.400Z,400.00
2022-11-21T02:29:20.444Z,399.00
2022-11-21T02:29:50.484Z,401.00
2022-11-21T02:30:20.544Z,401.00
2022-11-21T02:30:50.563Z,401.00
2022-11-21T02:31:20.602Z,398.00
2022-11-21T02:31:50.651Z,398.00
2022-11-21T02:32:20.698Z,399.00
2022-11-21T02:32:50.718Z,401.00
2022-11-21T02:33:20.762Z,402.00
2022-11-21T02:33:50.788Z,402.00
2022-11-21T02:34:20.833Z,400.00
2022-11-21T02:34:50.849Z,400.00
2022-11-21T02:35:20.857Z,401.00
2022-11-21T02:35:50.864Z,402.00
2022-11-21T02:36:20.864Z,401.00
2022-11-21T02:36:50.865Z,402.00
2022-11-21T02:37:20.868Z,403.00
2022-11-21T02:37:50.996Z,403.00
2022-11-21T02:38:20.991Z,403.00
2022-11-21T02:38:51.103Z,403.00
2022-11-21T02:39:21.234Z,404.00
2022-11-21T02:39:51.226Z,403.00
2022-11-21T02:40:21.341Z,403.00
2022-11-21T02:40:51.342Z,402.00
2022-11-21T02:41:21.465Z,402.00
2022-11-21T02:41:51.586Z,401.00
2022-11-21T02:42:21.618Z,401.00
2022-11-21T02:42:52.922Z,400.00
2022-11-21T02:43:21.631Z,401.00
2022-11-21T02:43:51.625Z,400.00
2022-11-21T02:44:21.743Z,398.00
2022-11-21T02:44:51.766Z,398.00
2022-11-21T02:45:21.802Z,395.00
2022-11-21T02:45:51.853Z,395.00
2022-11-21T02:46:21.868Z,395.00
2022-11-21T02:46:51.921Z,398.00
2022-11-21T02:47:21.973Z,397.00
2022-11-21T02:47:52.009Z,401.00
2022-11-21T02:48:22.068Z,401.00
2022-11-21T02:48:52.093Z,398.00
2022-11-21T02:49:22.150Z,400.00
2022-11-21T02:49:52.167Z,400.00
2022-11-21T02:50:22.207Z,400.00
2022-11-21T02:50:52.248Z,400.00
2022-11-21T02:51:22.283Z,402.00
2022-11-21T02:51:52.298Z,402.00
2022-11-21T02:52:22.346Z,402.00
2022-11-21T02:52:52.394Z,401.00
2022-11-21T02:53:22.439Z,401.00
2022-11-21T02:53:52.465Z,403.00
2022-11-21T02:54:22.547Z,403.00
2022-11-21T02:54:52.571Z,404.00
2022-11-21T02:55:22.608Z,403.00
2022-11-21T02:55:52.644Z,402.00
2022-11-21T02:56:22.676Z,403.00
2022-11-21T02:56:52.765Z,401.00
2022-11-21T02:57:22.827Z,403.00
2022-11-21T02:57:52.861Z,400.00
2022-11-21T02:58:22.916Z,400.00
2022-11-21T02:58:52.947Z,400.00
2022-11-21T02:59:22.983Z,398.00
2022-11-21T02:59:53.033Z,398.00
2022-11-21T03:00:23.086Z,400.00
2022-11-21T03:00:53.123Z,399.00
2022-11-21T03:01:23.220Z,400.00
2022-11-21T03:01:53.258Z,401.00
2022-11-21T03:02:23.295Z,401.00
2022-11-21T03:02:53.334Z,403.00
2022-11-21T03:03:23.400Z,403.00
2022-11-21T03:03:53.427Z,403.00
2022-11-21T03:04:23.465Z,404.00
2022-11-21T03:04:53.506Z,405.00
2022-11-21T03:05:23.555Z,404.00
2022-11-21T03:05:53.580Z,405.00
2022-11-21T03:06:23.600Z,406.00
2022-11-21T03:06:53.672Z,407.00
2022-11-21T03:07:23.733Z,406.00
2022-11-21T03:07:53.770Z,405.00
2022-11-21T03:08:23.802Z,406.00
2022-11-21T03:08:53.841Z,405.00
2022-11-21T03:09:23.880Z,403.00
2022-11-21T03:09:53.916Z,402.00
2022-11-21T03:10:23.953Z,401.00
2022-11-21T03:10:53.983Z,401.00
2022-11-21T03:11:24.023Z,399.00
2022-11-21T03:11:54.069Z,399.00
2022-11-21T03:12:24.127Z,397.00
2022-11-21T03:12:54.166Z,396.00
2022-11-21T03:13:24.208Z,396.00
2022-11-21T03:13:54.249Z,394.00
2022-11-21T03:14:24.286Z,394.00
2022-11-21T03:14:54.323Z,394.00
2022-11-21T03:15:24.364Z,395.00
2022-11-21T03:15:54.405Z,395.00
2022-11-21T03:16:24.440Z,395.00
2022-11-21T03:16:54.487Z,395.00
2022-11-21T03:17:24.502Z,395.00
2022-11-21T03:17:54.549Z,397.00
2022-11-21T03:18:24.564Z,399.00
2022-11-21T03:18:54.597Z,398.00
2022-11-21T03:19:24.640Z,398.00
2022-11-21T03:19:54.681Z,400.00
2022-11-21T03:20:24.722Z,402.00
2022-11-21T03:20:54.749Z,404.00
2022-11-21T03:21:24.786Z,402.00
2022-11-21T03:21:54.823Z,402.00
2022-11-21T03:22:24.862Z,402.00
2022-11-21T03:22:54.894Z,401.00
2022-11-21T03:23:24.940Z,401.00
2022-11-21T03:23:54.981Z,402.00
2022-11-21T03:24:25.255Z,403.00
2022-11-21T03:24:55.066Z,403.00
2022-11-21T03:25:25.123Z,400.00
2022-11-21T03:25:55.156Z,400.00
2022-11-21T03:26:25.205Z,400.00
2022-11-21T03:26:55.226Z,400.00
2022-11-21T03:27:25.278Z,403.00
2022-11-21T03:27:55.317Z,405.00
2022-11-21T03:28:25.350Z,403.00
2022-11-21T03:28:55.408Z,404.00
2022-11-21T03:29:25.443Z,405.00
2022-11-21T03:29:55.479Z,407.00
2022-11-21T03:30:25.518Z,407.00
2022-11-21T03:30:55.561Z,408.00
2022-11-21T03:31:25.583Z,410.00
2022-11-21T03:31:55.647Z,410.00
2022-11-21T03:32:25.689Z,408.00
2022-11-21T03:32:55.708Z,409.00
2022-11-21T03:33:25.744Z,407.00
2022-11-21T03:33:55.787Z,407.00
2022-11-21T03:34:26.159Z,408.00
2022-11-21T03:34:55.845Z,410.00
2022-11-21T03:35:25.873Z,409.00
2022-11-21T03:35:55.875Z,409.00
2022-11-21T03:36:25.873Z,410.00
2022-11-21T03:36:55.990Z,410.00
2022-11-21T03:37:25.996Z,409.00
2022-11-21T03:37:56.005Z,408.00
2022-11-21T03:38:25.993Z,407.00
2022-11-21T03:38:55.988Z,405.00
2022-11-21T03:39:26.115Z,405.00
2022-11-21T03:39:56.121Z,405.00
2022-11-21T03:40:26.120Z,405.00
2022-11-21T03:40:56.264Z,405.00
2022-11-21T03:41:26.258Z,406.00
2022-11-21T03:41:56.261Z,407.00
2022-11-21T03:42:26.257Z,408.00
2022-11-21T03:42:56.379Z,410.00
2022-11-21T03:43:26.520Z,408.00
2022-11-21T03:43:56.563Z,409.00
2022-11-21T03:44:26.910Z,409.00
2022-11-21T03:44:56.606Z,410.00
2022-11-21T03:45:26.650Z,410.00
2022-11-21T03:45:56.680Z,407.00
2022-11-21T03:46:26.725Z,408.00
2022-11-21T03:46:56.778Z,407.00
2022-11-21T03:47:26.824Z,408.00
2022-11-21T03:47:56.884Z,407.00
2022-11-21T03:48:26.929Z,406.00
2022-11-21T03:48:56.999Z,405.00
2022-11-21T03:49:27.023Z,405.00
2022-11-21T03:49:57.051Z,405.00
2022-11-21T03:50:27.104Z,404.00
2022-11-21T03:50:57.148Z,404.00
2022-11-21T03:51:27.175Z,405.00
2022-11-21T03:51:57.213Z,404.00
2022-11-21T03:52:27.252Z,407.00
2022-11-21T03:52:57.280Z,406.00
2022-11-21T03:53:27.320Z,406.00
2022-11-21T03:53:57.455Z,406.00
2022-11-21T03:54:27.849Z,406.00
2022-11-21T03:54:57.575Z,406.00
2022-11-21T03:55:27.599Z,408.00
2022-11-21T03:55:57.634Z,409.00
2022-11-21T03:56:27.662Z,407.00
2022-11-21T03:56:57.701Z,406.00
2022-11-21T03:57:27.783Z,407.00
2022-11-21T03:57:57.823Z,407.00
2022-11-21T03:58:27.863Z,407.00
2022-11-21T03:58:57.904Z,410.00
2022-11-21T03:59:27.949Z,411.00
2022-11-21T03:59:57.990Z,410.00
2022-11-21T04:00:28.042Z,409.00
2022-11-21T04:00:58.128Z,410.00
2022-11-21T04:01:32.453Z,411.00
2022-11-21T04:01:58.322Z,412.00
2022-11-21T04:02:28.273Z,411.00
2022-11-21T04:02:58.309Z,413.00
2022-11-21T04:03:28.368Z,409.00
2022-11-21T04:03:58.382Z,410.00
2022-11-21T04:04:28.684Z,408.00
2022-11-21T04:04:58.497Z,410.00
2022-11-21T04:05:28.541Z,410.00
2022-11-21T04:05:58.609Z,408.00
2022-11-21T04:06:29.171Z,409.00
2022-11-21T04:06:58.695Z,411.00
2022-11-21T04:07:28.760Z,410.00
2022-11-21T04:07:58.828Z,410.00
2022-11-21T04:08:28.910Z,409.00
2022-11-21T04:08:58.931Z,409.00
2022-11-21T04:09:28.974Z,411.00
2022-11-21T04:09:59.014Z,411.00
2022-11-21T04:10:29.051Z,411.00
2022-11-21T04:10:59.113Z,411.00
2022-11-21T04:11:29.155Z,412.00
2022-11-21T04:11:59.190Z,411.00
2022-11-21T04:12:29.270Z,410.00
2022-11-21T04:12:59.309Z,411.00
2022-11-21T04:13:29.330Z,411.00
2022-11-21T04:13:59.365Z,411.00
2022-11-21T04:14:29.977Z,409.00
2022-11-21T04:14:59.497Z,408.00
2022-11-21T04:15:29.534Z,408.00
2022-11-21T04:15:59.554Z,409.00
2022-11-21T04:16:29.589Z,407.00
2022-11-21T04:16:59.644Z,408.00
2022-11-21T04:17:29.746Z,408.00
2022-11-21T04:17:59.772Z,407.00
2022-11-21T04:18:29.799Z,407.00
2022-11-21T04:18:59.856Z,405.00
2022-11-21T04:19:29.875Z,403.00
2022-11-21T04:19:59.919Z,405.00
2022-11-21T04:20:29.969Z,407.00
2022-11-21T04:21:00.010Z,406.00
2022-11-21T04:21:30.041Z,407.00
2022-11-21T04:22:00.065Z,407.00
2022-11-21T04:22:30.122Z,408.00
2022-11-21T04:23:00.173Z,408.00
2022-11-21T04:23:30.277Z,410.00
2022-11-21T04:24:00.326Z,411.00
2022-11-21T04:24:30.714Z,410.00
2022-11-21T04:25:00.431Z,408.00
2022-11-21T04:25:30.467Z,405.00
2022-11-21T04:26:00.530Z,404.00
2022-11-21T04:26:30.595Z,404.00
2022-11-21T04:27:00.619Z,403.00
2022-11-21T04:27:30.696Z,402.00
2022-11-21T04:28:00.736Z,402.00
2022-11-21T04:28:30.785Z,402.00
2022-11-21T04:29:00.815Z,404.00
2022-11-21T04:29:30.868Z,404.00
2022-11-21T04:30:00.912Z,403.00
2022-11-21T04:30:30.942Z,405.00
2022-11-21T04:31:01.332Z,404.00
2022-11-21T04:31:31.128Z,402.00
2022-11-21T04:32:01.149Z,404.00
2022-11-21T04:32:31.224Z,403.00
2022-11-21T04:33:01.228Z,403.00
2022-11-21T04:33:31.262Z,403.00
2022-11-21T04:34:01.331Z,403.00
2022-11-21T04:34:31.447Z,403.00
2022-11-21T04:35:01.372Z,406.00
2022-11-21T04:35:31.365Z,406.00
2022-11-21T04:36:01.369Z,406.00
2022-11-21T04:36:31.404Z,405.00
2022-11-21T04:37:01.558Z,405.00
2022-11-21T04:37:31.450Z,405.00
2022-11-21T04:38:01.578Z,405.00
2022-11-21T04:38:31.581Z,406.00
2022-11-21T04:39:01.613Z,405.00
2022-11-21T04:39:31.602Z,406.00
2022-11-21T04:40:01.608Z,404.00
2022-11-21T04:40:31.608Z,402.00
2022-11-21T04:41:01.713Z,402.00
2022-11-21T04:41:31.708Z,402.00
2022-11-21T04:42:01.863Z,400.00
2022-11-21T04:42:31.858Z,398.00
2022-11-21T04:43:01.855Z,396.00
2022-11-21T04:43:31.866Z,397.00
2022-11-21T04:44:02.008Z,399.00
2022-11-21T04:44:32.011Z,398.00
2022-11-21T04:45:02.040Z,394.00
2022-11-21T04:45:32.076Z,396.00
2022-11-21T04:46:02.117Z,396.00
2022-11-21T04:46:32.140Z,397.00
2022-11-21T04:47:05.322Z,398.00
2022-11-21T04:47:32.242Z,399.00
2022-11-21T04:48:02.273Z,400.00
2022-11-21T04:48:32.304Z,401.00
2022-11-21T04:49:02.340Z,401.00
2022-11-21T04:49:32.400Z,401.00
2022-11-21T04:50:02.407Z,401.00
2022-11-21T04:50:32.441Z,404.00
2022-11-21T04:51:02.486Z,406.00
2022-11-21T04:51:32.531Z,404.00
2022-11-21T04:52:02.580Z,408.00
2022-11-21T04:52:32.635Z,409.00
2022-11-21T04:53:02.682Z,409.00
2022-11-21T04:53:32.716Z,409.00
2022-11-21T04:54:02.760Z,409.00
2022-11-21T04:54:32.796Z,408.00
2022-11-21T04:55:02.840Z,409.00
2022-11-21T04:55:32.871Z,411.00
2022-11-21T04:56:02.911Z,413.00
2022-11-21T04:56:32.990Z,414.00
2022-11-21T04:57:03.033Z,414.00
2022-11-21T04:57:33.058Z,418.00
2022-11-21T04:58:03.094Z,420.00
2022-11-21T04:58:33.146Z,420.00
2022-11-21T04:59:03.179Z,420.00
2022-11-21T04:59:33.232Z,422.00
2022-11-21T05:00:03.298Z,421.00
2022-11-21T05:00:33.373Z,421.00
2022-11-21T05:01:03.415Z,418.00
2022-11-21T05:01:33.534Z,416.00
2022-11-21T05:02:03.474Z,414.00
2022-11-21T05:02:33.528Z,414.00
2022-11-21T05:03:03.564Z,412.00
2022-11-21T05:03:33.597Z,411.00
2022-11-21T05:04:03.635Z,411.00
2022-11-21T05:04:33.680Z,411.00
2022-11-21T05:05:03.754Z,411.00
2022-11-21T05:05:33.777Z,412.00
2022-11-21T05:06:03.821Z,411.00
2022-11-21T05:06:33.842Z,412.00
2022-11-21T05:07:03.931Z,413.00
2022-11-21T05:07:34.110Z,415.00
2022-11-21T05:08:04.066Z,414.00
2022-11-21T05:08:34.113Z,416.00
2022-11-21T05:09:04.140Z,416.00
2022-11-21T05:09:34.190Z,412.00
2022-11-21T05:10:04.221Z,415.00
2022-11-21T05:10:34.269Z,414.00
2022-11-21T05:11:04.304Z,414.00
2022-11-21T05:11:34.386Z,414.00
2022-11-21T05:12:04.419Z,414.00
2022-11-21T05:12:34.457Z,414.00
2022-11-21T05:13:04.498Z,414.00
2022-11-21T05:13:34.533Z,415.00
2022-11-21T05:14:04.573Z,417.00
2022-11-21T05:14:34.611Z,421.00
2022-11-21T05:15:04.649Z,423.00
2022-11-21T05:15:34.684Z,423.00
2022-11-21T05:16:04.717Z,423.00
2022-11-21T05:16:34.797Z,423.00
2022-11-21T05:17:04.861Z,424.00
2022-11-21T05:17:34.914Z,424.00
2022-11-21T05:18:04.966Z,425.00
2022-11-21T05:18:35.021Z,422.00
2022-11-21T05:19:05.052Z,423.00
2022-11-21T05:19:35.090Z,422.00
2022-11-21T05:20:05.141Z,421.00
2022-11-21T05:20:36.993Z,420.00
2022-11-21T05:21:05.250Z,420.00
2022-11-21T05:21:35.290Z,418.00
2022-11-21T05:22:05.356Z,419.00
2022-11-21T05:22:35.393Z,420.00
2022-11-21T05:23:05.429Z,419.00
2022-11-21T05:23:35.467Z,418.00
2022-11-21T05:24:05.506Z,419.00
2022-11-21T05:24:35.529Z,420.00
2022-11-21T05:25:05.592Z,421.00
2022-11-21T05:25:35.633Z,419.00
2022-11-21T05:26:05.667Z,420.00
2022-11-21T05:26:35.705Z,424.00
2022-11-21T05:27:05.771Z,425.00
2022-11-21T05:27:35.812Z,427.00
2022-11-21T05:28:05.889Z,434.00
2022-11-21T05:28:35.908Z,434.00
2022-11-21T05:29:05.961Z,436.00
2022-11-21T05:29:36.036Z,438.00
2022-11-21T05:30:06.078Z,439.00
2022-11-21T05:30:36.127Z,439.00
2022-11-21T05:31:06.178Z,436.00
2022-11-21T05:31:36.218Z,435.00
2022-11-21T05:32:06.453Z,432.00
2022-11-21T05:32:36.352Z,430.00
2022-11-21T05:33:06.382Z,432.00
2022-11-21T05:33:36.446Z,435.00
2022-11-21T05:34:06.563Z,440.00
2022-11-21T05:34:36.587Z,443.00
2022-11-21T05:35:06.580Z,447.00
2022-11-21T05:35:42.719Z,447.00
2022-11-21T05:36:06.731Z,447.00
2022-11-21T05:36:36.839Z,500.00
2022-11-21T05:37:06.859Z,476.00
2022-11-21T05:37:36.863Z,470.00
2022-11-21T05:38:06.856Z,465.00
2022-11-21T05:38:36.968Z,465.00
2022-11-21T05:39:06.973Z,464.00
2022-11-21T05:39:37.104Z,463.00
2022-11-21T05:40:07.113Z,464.00
2022-11-21T05:40:37.128Z,463.00
2022-11-21T05:41:07.122Z,463.00
2022-11-21T05:41:37.170Z,467.00
2022-11-21T05:42:07.183Z,466.00
2022-11-21T05:42:37.183Z,468.00
2022-11-21T05:43:07.184Z,471.00
2022-11-21T05:43:37.182Z,470.00
2022-11-21T05:44:07.179Z,471.00
2022-11-21T05:44:37.195Z,471.00
2022-11-21T05:45:07.249Z,473.00
2022-11-21T05:45:37.291Z,475.00
2022-11-21T05:46:07.377Z,475.00
2022-11-21T05:46:37.432Z,474.00
2022-11-21T05:47:07.515Z,472.00
2022-11-21T05:47:37.576Z,470.00
2022-11-21T05:48:07.631Z,475.00
2022-11-21T05:48:37.695Z,477.00
2022-11-21T05:49:07.752Z,479.00
2022-11-21T05:49:37.791Z,481.00
2022-11-21T05:50:07.841Z,480.00
2022-11-21T05:50:37.906Z,480.00
2022-11-21T05:51:08.004Z,480.00
2022-11-21T05:51:38.034Z,482.00
2022-11-21T05:52:08.079Z,483.00
2022-11-21T05:52:38.123Z,483.00
2022-11-21T05:53:08.170Z,483.00
2022-11-21T05:53:38.280Z,485.00
2022-11-21T05:54:08.338Z,483.00
2022-11-21T05:54:40.399Z,485.00
2022-11-21T05:55:08.454Z,483.00
2022-11-21T05:55:38.522Z,483.00
2022-11-21T05:56:08.557Z,485.00
2022-11-21T05:56:38.639Z,494.00
2022-11-21T05:57:08.728Z,494.00
2022-11-21T05:57:38.778Z,495.00
2022-11-21T05:58:08.813Z,494.00
2022-11-21T05:58:38.849Z,493.00
2022-11-21T05:59:08.887Z,491.00
2022-11-21T05:59:38.905Z,491.00
2022-11-21T06:00:08.956Z,490.00
2022-11-21T06:00:38.999Z,491.00
2022-11-21T06:01:09.070Z,491.00
2022-11-21T06:01:39.144Z,494.00
2022-11-21T06:02:09.208Z,494.00
2022-11-21T06:02:39.378Z,493.00
2022-11-21T06:03:09.288Z,493.00
2022-11-21T06:03:39.389Z,491.00
2022-11-21T06:04:09.457Z,492.00
2022-11-21T06:04:39.460Z,490.00
2022-11-21T06:05:09.478Z,490.00
2022-11-21T06:05:39.508Z,490.00
2022-11-21T06:06:09.547Z,490.00
2022-11-21T06:06:39.626Z,491.00
2022-11-21T06:07:09.724Z,491.00
2022-11-21T06:07:39.829Z,491.00
2022-11-21T06:08:09.879Z,492.00
2022-11-21T06:08:39.921Z,492.00
2022-11-21T06:09:09.963Z,494.00
2022-11-21T06:09:39.995Z,495.00
2022-11-21T06:10:10.057Z,496.00
2022-11-21T06:10:40.103Z,495.00
2022-11-21T06:11:10.135Z,492.00
2022-11-21T06:11:40.160Z,493.00
2022-11-21T06:12:10.240Z,493.00
2022-11-21T06:12:40.264Z,492.00
2022-11-21T06:13:10.293Z,491.00
2022-11-21T06:13:40.320Z,490.00
2022-11-21T06:14:10.351Z,489.00
2022-11-21T06:14:40.422Z,489.00